Barnham, United Kingdom
Current Conditions -  °F | °C
As of 7:50 PM on Tuesday 27 Jan 2015 (Local Time) from EGKA Reporting Station
Broken Clouds Broken Clouds  
Wind Chill: 41°   Ceiling: 2500
Heat Index: 45°   Visibility: 6mi
Dew Point: 37°   Wind: 6mph
Humidity: 76%   Direction: 270°W
Pressure: 30.27"   Gusts: NA
Location:  50.83°N, 0.64°W
Report Text: EGKA 271950Z 27005KT 9999 BKN025 07/03 Q1025
Loading
Personal Weather Stations






























Interactive Weather Map New forecast layout! Learn more

10-Day Weather Forecast

Advertisements
Track Severe Weather on mobile